Time;durP1;ratioP1;P1;durP2;ratioP2;P2;SDS_P1;SDS_P2;PMS_P1;PMS_P2;Temp;Humidity;BMP_temperature;BMP_pressure;BME280_temperature;BME280_humidity;BME280_pressure;Samples;Min_cycle;Max_cycle;Signal;HPM_P1;HPM_P2
2022/05/01 00:00:12;;;;;;;9.67;7.33;;;11.30;99.90;;;;;;5096669;28;20495;-78
2022/05/01 00:02:39;;;;;;;9.10;6.77;;;11.30;99.90;;;;;;5097094;28;20476;-78
2022/05/01 00:05:07;;;;;;;8.30;7.40;;;11.20;1.00;;;;;;5095074;28;20543;-78
2022/05/01 00:07:33;;;;;;;7.10;6.50;;;11.40;99.90;;;;;;5094551;28;20451;-77
2022/05/01 00:10:01;;;;;;;7.83;5.87;;;11.40;99.90;;;;;;5096239;28;20448;-77
2022/05/01 00:12:29;;;;;;;6.43;5.83;;;11.30;99.90;;;;;;5097806;28;20426;-77
2022/05/01 00:14:56;;;;;;;6.20;5.60;;;11.30;99.90;;;;;;5094402;28;20996;-78
2022/05/01 00:17:23;;;;;;;7.80;6.20;;;;;;;;;;5096919;28;20482;-77
2022/05/01 00:19:49;;;;;;;7.13;6.43;;;11.10;99.90;;;;;;5096911;28;20436;-77
2022/05/01 00:22:16;;;;;;;7.23;5.10;;;11.10;1.00;;;;;;5094816;28;20448;-77
2022/05/01 00:24:42;;;;;;;7.10;6.13;;;11.10;99.90;;;;;;5094627;28;20500;-77
2022/05/01 00:27:10;;;;;;;9.57;5.43;;;11.10;1.00;;;;;;5095205;28;20448;-77
2022/05/01 00:29:37;;;;;;;6.97;6.27;;;11.00;1.00;;;;;;5094223;28;20606;-78
2022/05/01 00:32:05;;;;;;;6.30;5.07;;;11.00;1.00;;;;;;5094870;28;20518;-76
2022/05/01 00:37:17;;;;;;;8.87;5.80;;;10.90;1.00;;;;;;5094008;28;20417;-78
2022/05/01 00:39:43;;;;;;;6.93;5.57;;;10.90;1.00;;;;;;5094219;28;20466;-78
2022/05/01 00:42:11;;;;;;;8.40;5.70;;;10.80;1.00;;;;;;5095422;28;20457;-77
2022/05/01 00:44:39;;;;;;;13.17;6.00;;;10.80;99.90;;;;;;5094983;28;21002;-77
2022/05/01 00:47:06;;;;;;;6.80;5.60;;;10.80;99.90;;;;;;5095295;28;20455;-76
2022/05/01 00:49:32;;;;;;;7.60;5.33;;;10.80;1.00;;;;;;5095682;28;20483;-77
2022/05/01 00:52:01;;;;;;;8.17;5.37;;;10.80;99.90;;;;;;5100067;28;20450;-76
2022/05/01 00:54:29;;;;;;;5.63;5.13;;;10.80;99.90;;;;;;5103219;28;20468;-76
2022/05/01 00:56:59;;;;;;;9.10;6.00;;;10.90;99.90;;;;;;5100457;28;20478;-75
2022/05/01 00:59:28;;;;;;;9.50;6.10;;;10.90;1.00;;;;;;5097080;28;20796;-77
2022/05/01 01:01:55;;;;;;;7.60;5.10;;;10.80;50.50;;;;;;5096064;28;20841;-77
2022/05/01 01:04:22;;;;;;;6.53;5.60;;;10.80;1.00;;;;;;5097283;28;20513;-78
2022/05/01 01:06:49;;;;;;;5.90;5.40;;;10.80;98.40;;;;;;5095473;28;20470;-76
2022/05/01 01:09:17;;;;;;;9.20;6.00;;;10.80;1.00;;;;;;5095958;28;20525;-78
2022/05/01 01:11:44;;;;;;;7.43;5.73;;;10.70;1.00;;;;;;5094994;28;20454;-77
2022/05/01 01:14:11;;;;;;;6.10;5.50;;;10.70;46.80;;;;;;5097895;28;20529;-78
2022/05/01 01:16:44;;;;;;;8.83;4.90;;;10.70;1.00;;;;;;5097481;28;20445;-78
2022/05/01 01:19:10;;;;;;;6.37;5.07;;;10.80;1.00;;;;;;5098341;28;20429;-77
2022/05/01 01:21:38;;;;;;;6.30;5.03;;;10.80;99.90;;;;;;5097670;28;20444;-78
2022/05/01 01:24:09;;;;;;;6.33;5.37;;;10.70;99.90;;;;;;5097664;28;20507;-78
2022/05/01 01:26:36;;;;;;;6.13;4.70;;;10.70;99.90;;;;;;5097914;28;20834;-77
2022/05/01 01:31:40;;;;;;;6.37;4.97;;;10.60;99.90;;;;;;5097711;28;20869;-78
2022/05/01 01:31:52;;;;;;;6.80;6.07;;;10.60;99.90;;;;;;5097551;28;20794;-77
2022/05/01 01:34:21;;;;;;;8.13;5.87;;;10.70;99.90;;;;;;5097739;28;20442;-78
2022/05/01 01:36:50;;;;;;;7.90;5.40;;;10.70;99.90;;;;;;5097660;28;20418;-77
2022/05/01 01:39:18;;;;;;;7.30;5.40;;;10.70;99.90;;;;;;5099616;28;20784;-79
2022/05/01 01:41:47;;;;;;;9.33;5.23;;;10.60;99.90;;;;;;5099750;28;20422;-79
2022/05/01 01:44:14;;;;;;;7.80;5.00;;;10.70;99.90;;;;;;5097993;28;20460;-77
2022/05/01 01:46:41;;;;;;;7.33;4.87;;;10.60;99.90;;;;;;5097207;28;20480;-78
2022/05/01 01:49:09;;;;;;;6.33;5.47;;;10.60;99.90;;;;;;5097457;28;20479;-78
2022/05/01 01:51:36;;;;;;;9.10;5.50;;;10.50;99.90;;;;;;5096972;28;20908;-78
2022/05/01 01:54:06;;;;;;;10.73;4.90;;;10.40;99.90;;;;;;5096991;28;20559;-77
2022/05/01 01:56:32;;;;;;;8.23;5.30;;;10.50;99.90;;;;;;5097313;28;20430;-77
2022/05/01 01:58:59;;;;;;;8.40;5.63;;;10.50;99.90;;;;;;5096814;28;20483;-79
2022/05/01 02:01:25;;;;;;;7.63;5.20;;;10.60;99.90;;;;;;5097096;28;20442;-77
2022/05/01 02:03:52;;;;;;;9.00;4.77;;;10.50;99.90;;;;;;5096642;28;20491;-77
2022/05/01 02:06:19;;;;;;;5.80;4.77;;;10.50;99.90;;;;;;5096591;28;20808;-77
2022/05/01 02:08:47;;;;;;;10.33;5.60;;;11.10;99.90;;;;;;5099736;28;20520;-77
2022/05/01 02:11:15;;;;;;;6.87;6.00;;;10.50;99.90;;;;;;5096741;28;20451;-77
2022/05/01 02:13:42;;;;;;;8.53;5.20;;;10.50;99.90;;;;;;5096887;28;20442;-78
2022/05/01 02:16:08;;;;;;;9.50;5.27;;;10.50;99.90;;;;;;5096828;28;20518;-78
2022/05/01 02:18:35;;;;;;;11.23;5.07;;;10.50;99.90;;;;;;5096774;28;20615;-78
2022/05/01 02:23:46;;;;;;;6.67;5.33;;;10.10;1.00;;;;;;5131104;22;22693;-78
2022/05/01 02:26:13;;;;;;;11.60;5.70;;;10.40;99.90;;;;;;5061327;28;20453;-78
2022/05/01 02:28:41;;;;;;;9.87;5.63;;;10.40;99.90;;;;;;5061602;28;20471;-78
2022/05/01 02:31:07;;;;;;;6.67;5.10;;;10.40;99.90;;;;;;5060243;28;20449;-77
2022/05/01 02:33:34;;;;;;;7.73;6.23;;;9.90;99.90;;;;;;5058314;28;20470;-77
2022/05/01 02:36:03;;;;;;;7.03;6.37;;;10.30;99.90;;;;;;5059274;28;20420;-78
2022/05/01 02:38:30;;;;;;;6.20;5.30;;;10.20;99.90;;;;;;5059121;28;20420;-78
2022/05/01 02:40:56;;;;;;;10.30;5.63;;;10.30;99.90;;;;;;5060252;28;20442;-79
2022/05/01 02:43:24;;;;;;;7.23;5.87;;;10.50;1.00;;;;;;5079798;28;20419;-78
2022/05/01 02:45:52;;;;;;;5.90;5.30;;;10.30;99.90;;;;;;5078262;28;20456;-78
2022/05/01 02:48:19;;;;;;;8.27;5.20;;;10.20;99.90;;;;;;5077782;28;20427;-78
2022/05/01 02:50:45;;;;;;;5.03;4.53;;;10.20;99.90;;;;;;5079583;28;20465;-78
2022/05/01 02:53:12;;;;;;;6.33;5.73;;;10.30;99.90;;;;;;5077261;28;20428;-78
2022/05/01 02:55:38;;;;;;;8.93;5.23;;;10.30;99.90;;;;;;5077356;28;20472;-79
2022/05/01 02:58:05;;;;;;;5.23;4.83;;;10.20;1.00;;;;;;5078436;28;20704;-78
2022/05/01 03:00:33;;;;;;;5.33;4.77;;;10.10;1.00;;;;;;5078358;28;20437;-78
2022/05/01 03:03:01;;;;;;;9.07;6.00;;;10.00;1.00;;;;;;5077340;28;20514;-79
2022/05/01 03:05:28;;;;;;;7.60;4.60;;;10.00;1.00;;;;;;5077296;28;20447;-79
2022/05/01 03:07:55;;;;;;;5.60;5.10;;;10.00;16.70;;;;;;5076886;28;20431;-79
2022/05/01 03:10:22;;;;;;;6.40;5.53;;;9.90;99.90;;;;;;5078937;28;20839;-79
2022/05/01 03:12:49;;;;;;;7.43;5.63;;;9.90;99.90;;;;;;5077428;28;20444;-78
2022/05/01 03:15:16;;;;;;;5.03;4.53;;;9.90;99.90;;;;;;5075676;28;20878;-78
2022/05/01 03:23:12;;;;;;;5.40;4.90;;;9.90;88.40;;;;;;5081626;28;20831;-78
2022/05/01 03:25:38;;;;;;;7.70;5.13;;;9.80;99.90;;;;;;5080651;28;20485;-78
2022/05/01 03:28:05;;;;;;;5.43;4.07;;;9.80;99.90;;;;;;5078981;28;20429;-79
2022/05/01 03:30:32;;;;;;;6.23;5.20;;;9.90;1.00;;;;;;5078254;28;20503;-79
2022/05/01 03:32:59;;;;;;;6.00;4.40;;;9.90;1.00;;;;;;5078095;28;20481;-78
2022/05/01 03:35:26;;;;;;;10.50;5.00;;;9.80;1.00;;;;;;5077671;28;20439;-78
2022/05/01 03:37:53;;;;;;;7.17;4.60;;;9.70;70.70;;;;;;5077384;28;20419;-79
2022/05/01 03:40:21;;;;;;;5.07;4.50;;;9.70;1.00;;;;;;5076356;28;20447;-79
2022/05/01 03:42:47;;;;;;;7.63;4.97;;;9.60;99.90;;;;;;5075104;28;20440;-78
2022/05/01 03:45:14;;;;;;;6.97;5.50;;;9.70;99.90;;;;;;5075813;28;20473;-79
2022/05/01 03:47:41;;;;;;;5.90;5.30;;;9.70;1.00;;;;;;5075379;28;20427;-78
2022/05/01 03:50:08;;;;;;;6.63;5.23;;;9.40;99.90;;;;;;5075724;28;20484;-78
2022/05/01 03:52:34;;;;;;;12.27;8.70;;;9.50;99.90;;;;;;5075341;28;20786;-78
2022/05/01 03:55:02;;;;;;;6.83;5.60;;;9.60;99.90;;;;;;5074436;28;20465;-79
2022/05/01 03:57:29;;;;;;;5.17;4.67;;;9.50;99.90;;;;;;5075098;28;20415;-78
2022/05/01 03:59:56;;;;;;;7.07;5.00;;;9.40;1.00;;;;;;5074469;28;20468;-78
2022/05/01 04:02:23;;;;;;;5.33;4.83;;;9.50;99.90;;;;;;5074566;28;20926;-79
2022/05/01 04:04:49;;;;;;;6.73;5.97;;;9.50;3.20;;;;;;5074359;28;20823;-79
2022/05/01 04:07:16;;;;;;;9.40;5.60;;;9.20;99.90;;;;;;5075408;28;20997;-79
2022/05/01 04:09:43;;;;;;;12.60;7.80;;;9.50;99.90;;;;;;5074945;28;20508;-78
2022/05/01 04:12:13;;;;;;;7.50;5.70;;;9.50;99.90;;;;;;5074682;28;20947;-79
2022/05/01 04:14:39;;;;;;;10.90;5.43;;;9.60;99.90;;;;;;5074581;28;20554;-79
2022/05/01 04:17:06;;;;;;;5.50;5.00;;;9.60;99.90;;;;;;5075471;28;20445;-79
2022/05/01 04:19:32;;;;;;;4.87;4.47;;;9.60;99.90;;;;;;5073979;28;20464;-78
2022/05/01 04:21:59;;;;;;;5.20;4.70;;;9.60;99.90;;;;;;5074991;28;20419;-78
2022/05/01 04:24:26;;;;;;;5.57;5.07;;;9.60;99.90;;;;;;5073943;28;20481;-78
2022/05/01 04:26:52;;;;;;;10.50;5.23;;;9.60;99.90;;;;;;5073995;28;20476;-78
2022/05/01 04:29:39;;;;;;;5.87;4.80;;;9.30;1.00;;;;;;5073567;28;20458;-78
2022/05/01 04:32:06;;;;;;;6.43;4.80;;;9.60;99.90;;;;;;5074183;28;20447;-78
2022/05/01 04:34:33;;;;;;;5.77;5.07;;;9.60;99.90;;;;;;5073919;28;20518;-79
2022/05/01 04:37:00;;;;;;;6.70;4.80;;;9.60;1.00;;;;;;5074113;28;20458;-78
2022/05/01 04:39:26;;;;;;;6.47;4.87;;;9.70;99.90;;;;;;5074037;28;20473;-78
2022/05/01 04:41:53;;;;;;;13.77;5.87;;;9.60;99.90;;;;;;5073557;28;20449;-78
2022/05/01 04:44:21;;;;;;;8.53;6.13;;;9.70;1.00;;;;;;5073694;28;20443;-78
2022/05/01 04:46:49;;;;;;;6.57;5.00;;;9.70;99.90;;;;;;5076548;28;20764;-79
2022/05/01 04:49:16;;;;;;;4.93;4.17;;;9.70;99.90;;;;;;5078850;28;20455;-77
2022/05/01 04:51:43;;;;;;;5.53;4.73;;;9.80;99.90;;;;;;5078620;28;20471;-77
2022/05/01 04:54:09;;;;;;;8.70;5.00;;;9.90;99.90;;;;;;5078096;28;20472;-78
2022/05/01 04:59:21;;;;;;;7.60;4.60;;;9.90;1.00;;;;;;5078782;28;20484;-77
2022/05/01 05:01:48;;;;;;;4.90;4.50;;;9.90;1.00;;;;;;5078536;28;20272;-77
2022/05/01 05:04:15;;;;;;;7.77;5.30;;;9.90;1.00;;;;;;5077870;28;20440;-77
2022/05/01 05:06:41;;;;;;;8.80;4.87;;;9.90;99.90;;;;;;5078899;28;20473;-78
2022/05/01 05:11:52;;;;;;;7.63;5.00;;;10.00;99.90;;;;;;5077614;28;20456;-78
2022/05/01 05:14:18;;;;;;;7.00;3.90;;;10.10;99.90;;;;;;5077171;28;20494;-79
2022/05/01 05:16:47;;;;;;;5.17;3.80;;;10.10;99.90;;;;;;5078989;28;20477;-78
2022/05/01 05:19:13;;;;;;;6.07;4.38;;;10.20;99.90;;;;;;5076967;28;20488;-79
2022/05/01 05:21:40;;;;;;;4.50;4.10;;;10.40;26.20;;;;;;5079240;28;20238;-78
2022/05/01 05:24:07;;;;;;;7.37;5.00;;;10.40;1.00;;;;;;5079200;28;20471;-78
2022/05/01 05:26:34;;;;;;;4.90;4.40;;;10.30;1.00;;;;;;5078192;28;20442;-78
2022/05/01 05:29:00;;;;;;;7.63;5.13;;;10.30;1.00;;;;;;5078621;28;20557;-78
2022/05/01 05:31:27;;;;;;;5.20;4.70;;;10.20;1.00;;;;;;5077635;28;20459;-78
2022/05/01 05:33:55;;;;;;;4.37;4.00;;;10.30;1.00;;;;;;5077525;28;20467;-77
2022/05/01 05:36:23;;;;;;;6.03;4.50;;;10.40;1.00;;;;;;5076461;28;20868;-78
2022/05/01 05:38:49;;;;;;;4.70;4.30;;;10.40;1.00;;;;;;5076852;28;20556;-78
2022/05/01 05:41:16;;;;;;;4.73;4.33;;;10.50;1.00;;;;;;5077266;28;20422;-78
2022/05/01 05:43:43;;;;;;;14.23;9.30;;;10.60;1.00;;;;;;5077839;28;20431;-79
2022/05/01 05:46:12;;;;;;;7.70;5.93;;;10.70;1.00;;;;;;5078699;28;20420;-78
2022/05/01 05:48:39;;;;;;;5.00;4.50;;;10.80;1.00;;;;;;5078454;28;20817;-79
2022/05/01 05:51:07;;;;;;;5.33;3.80;;;10.90;1.00;;;;;;5078461;28;20553;-78
2022/05/01 05:53:33;;;;;;;5.53;4.17;;;11.00;1.00;;;;;;5078494;28;21000;-78
2022/05/01 05:56:00;;;;;;;18.20;11.73;;;11.10;1.00;;;;;;5078619;28;20789;-78
2022/05/01 05:58:29;;;;;;;19.53;5.87;;;11.30;1.00;;;;;;5076505;28;20427;-79
2022/05/01 06:00:56;;;;;;;7.10;4.70;;;11.40;1.00;;;;;;5079106;28;20444;-78
2022/05/01 06:03:23;;;;;;;7.40;4.30;;;11.50;1.00;;;;;;5079128;28;20423;-78
2022/05/01 06:05:52;;;;;;;7.27;4.17;;;11.20;1.00;;;;;;5079032;28;20440;-80
2022/05/01 06:08:31;;;;;;;8.17;4.00;;;11.20;1.00;;;;;;5078556;28;20419;-78
2022/05/01 06:10:57;;;;;;;5.03;4.50;;;11.30;1.00;;;;;;5078266;28;20443;-78
2022/05/01 06:13:24;;;;;;;4.40;4.00;;;11.40;1.00;;;;;;5078551;28;20453;-77
2022/05/01 06:15:50;;;;;;;9.23;4.53;;;11.30;1.00;;;;;;5078464;28;20922;-78
2022/05/01 06:18:17;;;;;;;7.80;4.50;;;11.40;1.00;;;;;;5084416;28;20431;-78
2022/05/01 06:20:44;;;;;;;4.43;4.03;;;11.50;1.00;;;;;;5087217;28;20440;-78
2022/05/01 06:23:11;;;;;;;6.83;3.77;;;11.60;99.90;;;;;;5086936;28;20476;-78
2022/05/01 06:25:43;;;;;;;5.13;4.33;;;11.60;99.90;;;;;;5087089;28;20520;-78
2022/05/01 06:28:10;;;;;;;9.67;7.13;;;11.70;99.90;;;;;;5088428;28;20456;-77
2022/05/01 06:30:39;;;;;;;35.87;19.63;;;11.90;99.90;;;;;;5080708;28;20550;-77
2022/05/01 06:33:07;;;;;;;9.87;5.50;;;12.30;1.00;;;;;;5080214;28;20495;-78
2022/05/01 06:35:34;;;;;;;3.90;3.57;;;11.60;1.00;;;;;;5080383;28;20878;-78
2022/05/01 06:38:01;;;;;;;8.27;5.80;;;12.00;99.90;;;;;;5087116;28;20452;-77
2022/05/01 06:40:28;;;;;;;20.30;14.30;;;12.20;99.90;;;;;;5089282;28;20506;-77
2022/05/01 06:42:56;;;;;;;6.07;4.17;;;12.20;99.90;;;;;;5088196;28;20512;-78
2022/05/01 06:45:22;;;;;;;6.00;3.43;;;12.20;99.90;;;;;;5083262;28;20505;-77
2022/05/01 06:47:50;;;;;;;7.83;4.27;;;12.20;99.90;;;;;;5087061;28;20420;-78
2022/05/01 06:50:25;;;;;;;7.47;5.10;;;12.40;99.90;;;;;;5089080;28;20463;-78
2022/05/01 06:52:51;;;;;;;4.40;3.97;;;12.60;1.00;;;;;;5091491;28;20459;-79
2022/05/01 06:55:21;;;;;;;4.10;3.40;;;12.40;99.90;;;;;;5086822;28;20859;-78
2022/05/01 06:57:48;;;;;;;6.22;4.88;;;12.40;99.90;;;;;;5083819;28;20440;-78
2022/05/01 07:00:17;;;;;;;3.90;3.50;;;12.40;99.90;;;;;;5081855;28;20260;-77
2022/05/01 07:02:47;;;;;;;4.47;3.63;;;12.50;99.90;;;;;;5086049;28;20445;-77
2022/05/01 07:05:14;;;;;;;6.87;4.00;;;12.60;99.90;;;;;;5085332;28;20510;-78
2022/05/01 07:07:40;;;;;;;5.57;4.33;;;12.90;99.90;;;;;;5085334;28;20469;-78
2022/05/01 07:10:08;;;;;;;7.43;4.65;;;12.90;99.90;;;;;;5085739;28;20441;-77
2022/05/01 07:12:35;;;;;;;9.07;6.70;;;12.90;99.90;;;;;;5085309;28;20207;-78
2022/05/01 07:15:02;;;;;;;15.20;10.37;;;13.20;99.90;;;;;;5085565;28;20463;-78
2022/05/01 07:17:30;;;;;;;21.87;12.47;;;13.40;99.90;;;;;;5086831;28;20481;-78
2022/05/01 07:19:57;;;;;;;16.97;10.60;;;13.50;99.90;;;;;;5083858;28;20456;-77
2022/05/01 07:22:24;;;;;;;47.93;33.57;;;13.30;99.90;;;;;;5088493;28;20445;-77
2022/05/01 07:24:53;;;;;;;7.03;6.23;;;13.50;99.90;;;;;;5084459;28;20451;-77
2022/05/01 07:27:20;;;;;;;15.40;10.37;;;13.40;99.90;;;;;;5085217;28;20457;-78
2022/05/01 07:29:47;;;;;;;18.00;12.77;;;13.60;99.90;;;;;;5084323;28;20483;-79
2022/05/01 07:32:13;;;;;;;10.90;6.30;;;13.70;99.90;;;;;;5079179;28;20429;-79
2022/05/01 07:34:42;;;;;;;20.53;13.30;;;14.00;1.00;;;;;;5077777;28;20530;-79
2022/05/01 07:37:09;;;;;;;7.60;4.37;;;14.00;99.90;;;;;;5079112;28;20472;-79
2022/05/01 07:39:35;;;;;;;6.50;4.03;;;13.90;99.90;;;;;;5078473;28;20486;-78
2022/05/01 07:42:02;;;;;;;12.57;6.00;;;13.80;99.90;;;;;;5077793;28;20458;-79
2022/05/01 07:44:29;;;;;;;5.87;3.90;;;13.90;99.90;;;;;;5077488;28;20465;-78
2022/05/01 07:46:55;;;;;;;7.93;4.80;;;14.40;1.00;;;;;;5077655;28;20487;-78
2022/05/01 07:49:22;;;;;;;10.43;5.33;;;14.40;99.90;;;;;;5078943;28;20559;-79
2022/05/01 07:51:50;;;;;;;8.20;6.87;;;14.70;99.90;;;;;;5076479;28;20541;-79
2022/05/01 07:54:17;;;;;;;6.30;4.27;;;14.70;99.90;;;;;;5077299;28;20465;-79
2022/05/01 07:56:44;;;;;;;8.73;5.70;;;14.40;99.90;;;;;;5078107;28;20442;-79
2022/05/01 07:59:11;;;;;;;6.07;3.70;;;14.30;99.90;;;;;;5076515;28;20449;-79
2022/05/01 08:01:38;;;;;;;5.90;4.23;;;14.30;99.90;;;;;;5079350;28;20446;-79
2022/05/01 08:06:51;;;;;;;5.03;3.67;;;14.70;99.90;;;;;;5077327;28;20505;-78
2022/05/01 08:09:17;;;;;;;13.47;9.23;;;14.60;99.90;;;;;;5080028;28;20786;-79
2022/05/01 08:11:44;;;;;;;8.03;5.57;;;15.00;99.90;;;;;;5078842;28;20487;-78
2022/05/01 08:14:12;;;;;;;6.10;4.20;;;15.10;99.90;;;;;;5078704;28;20497;-78
2022/05/01 08:16:39;;;;;;;10.50;7.80;;;14.90;99.90;;;;;;5076998;28;20434;-78
2022/05/01 08:21:52;;;;;;;3.60;3.27;;;15.00;99.90;;;;;;5075146;28;20434;-78
2022/05/01 08:24:19;;;;;;;12.00;5.37;;;14.70;99.90;;;;;;5085211;22;20507;-77
2022/05/01 08:26:47;;;;;;;6.03;5.53;;;15.00;99.90;;;;;;5055730;28;20467;-77
2022/05/01 08:29:15;;;;;;;4.67;4.20;;;15.20;99.90;;;;;;5056693;28;20973;-77
2022/05/01 08:31:42;;;;;;;7.30;5.63;;;15.10;99.90;;;;;;5054350;28;20492;-76
2022/05/01 08:34:09;;;;;;;7.90;5.20;;;15.30;99.90;;;;;;5055289;28;20457;-77
2022/05/01 08:36:36;;;;;;;7.53;4.23;;;15.50;99.90;;;;;;5054884;28;20485;-76
2022/05/01 08:39:04;;;;;;;5.53;4.17;;;15.30;99.90;;;;;;5054392;28;20887;-77
2022/05/01 08:41:32;;;;;;;4.30;3.90;;;15.40;99.90;;;;;;5053352;28;20444;-77
2022/05/01 08:44:01;;;;;;;10.03;4.80;;;15.60;99.90;;;;;;5055004;28;20501;-77
2022/05/01 08:46:55;;;;;;;5.63;4.63;;;15.60;99.90;;;;;;5060281;28;20448;-78
2022/05/01 08:49:23;;;;;;;11.10;8.10;;;15.20;99.90;;;;;;5059408;28;20432;-77
2022/05/01 08:51:51;;;;;;;6.43;3.90;;;15.20;99.90;;;;;;5055472;28;20527;-77
2022/05/01 08:54:20;;;;;;;7.90;4.67;;;15.20;99.90;;;;;;5053752;28;20472;-76
2022/05/01 08:56:48;;;;;;;6.23;4.10;;;15.10;99.90;;;;;;5054534;28;20423;-78
2022/05/01 08:59:17;;;;;;;7.40;4.67;;;15.20;99.90;;;;;;5054168;28;20428;-77
2022/05/01 09:01:45;;;;;;;5.80;4.63;;;15.30;99.90;;;;;;5055247;28;20443;-77
2022/05/01 09:04:14;;;;;;;7.50;5.67;;;15.20;99.90;;;;;;5058624;28;20443;-77
2022/05/01 09:06:42;;;;;;;8.07;4.70;;;15.20;99.90;;;;;;5063175;28;20458;-77
2022/05/01 09:09:10;;;;;;;12.82;5.47;;;15.20;99.90;;;;;;5064728;28;20520;-77
2022/05/01 09:14:24;;;;;;;9.83;6.30;;;15.20;99.90;;;;;;5060168;28;20451;-77
2022/05/01 09:17:13;;;;;;;5.50;4.23;;;15.50;99.90;;;;;;5061118;28;20420;-76
2022/05/01 09:19:40;;;;;;;7.00;4.97;;;15.20;99.90;;;;;;5063079;28;20495;-77
2022/05/01 09:22:07;;;;;;;4.50;4.10;;;15.10;99.90;;;;;;5060976;28;20461;-77
2022/05/01 09:24:33;;;;;;;4.60;4.07;;;15.00;99.90;;;;;;5057063;28;21042;-76
2022/05/01 09:27:02;;;;;;;12.40;6.97;;;15.00;99.90;;;;;;5059119;28;20493;-78
2022/05/01 09:29:32;;;;;;;12.37;10.00;;;15.00;99.90;;;;;;5056966;28;20472;-77
2022/05/01 09:32:00;;;;;;;15.33;9.17;;;15.40;99.90;;;;;;5055356;28;20476;-77
2022/05/01 09:34:29;;;;;;;11.50;7.20;;;15.50;99.90;;;;;;5062378;28;20472;-77
2022/05/01 09:36:57;;;;;;;23.90;18.03;;;15.40;99.90;;;;;;5063215;28;20427;-77
2022/05/01 09:39:25;;;;;;;8.50;7.00;;;15.60;99.90;;;;;;5059379;28;20470;-77
2022/05/01 09:41:53;;;;;;;5.80;4.53;;;15.70;99.90;;;;;;5061566;28;20769;-78
2022/05/01 09:44:22;;;;;;;8.70;5.57;;;16.00;1.00;;;;;;5061070;28;20467;-78
2022/05/01 09:46:51;;;;;;;6.93;5.13;;;15.60;99.90;;;;;;5060245;28;20525;-77
2022/05/01 09:49:19;;;;;;;11.33;7.13;;;15.80;1.00;;;;;;5058865;28;20859;-78
2022/05/01 09:51:53;;;;;;;8.60;5.00;;;15.60;99.90;;;;;;5062079;28;20478;-77
2022/05/01 09:54:22;;;;;;;9.20;4.37;;;15.30;99.90;;;;;;5061109;28;20472;-77
2022/05/01 09:56:51;;;;;;;5.33;4.83;;;15.30;99.90;;;;;;5063467;28;20445;-77
2022/05/01 09:59:19;;;;;;;8.60;6.53;;;15.30;99.90;;;;;;5060229;28;20801;-76
2022/05/01 10:02:01;;;;;;;13.33;6.93;;;15.70;99.90;;;;;;5062055;28;20424;-77
2022/05/01 10:04:28;;;;;;;11.40;7.90;;;15.80;99.90;;;;;;5061095;28;20472;-77
2022/05/01 10:06:56;;;;;;;8.00;6.23;;;15.90;99.90;;;;;;5057594;28;20475;-77
2022/05/01 10:09:25;;;;;;;7.50;5.33;;;15.80;99.90;;;;;;5060129;28;20482;-77
2022/05/01 10:11:54;;;;;;;7.83;5.20;;;15.50;99.90;;;;;;5060390;28;20678;-77
2022/05/01 10:14:21;;;;;;;9.50;6.07;;;15.20;99.90;;;;;;5059574;28;20834;-78
2022/05/01 10:16:48;;;;;;;5.03;4.53;;;15.40;99.90;;;;;;5064438;28;20473;-78
2022/05/01 10:19:17;;;;;;;6.80;5.83;;;15.40;99.90;;;;;;5069307;28;20449;-78
2022/05/01 10:21:56;;;;;;;10.50;6.80;;;15.30;99.90;;;;;;5063616;28;20535;-76
2022/05/01 10:24:25;;;;;;;8.47;7.60;;;15.30;99.90;;;;;;5064592;28;20531;-77
2022/05/01 10:26:56;;;;;;;9.53;8.53;;;15.50;99.90;;;;;;5063611;28;20507;-76
2022/05/01 10:29:36;;;;;;;6.33;5.47;;;15.40;99.90;;;;;;5063470;28;20500;-77
2022/05/01 10:32:26;;;;;;;6.53;5.30;;;15.50;99.90;;;;;;5060380;28;20471;-77
2022/05/01 10:35:16;;;;;;;4.00;3.53;;;15.50;99.90;;;;;;5058865;28;20542;-77
2022/05/01 10:38:09;;;;;;;6.50;4.20;;;15.40;99.90;;;;;;5059114;28;20900;-78
2022/05/01 10:40:43;;;;;;;4.80;4.20;;;15.40;99.90;;;;;;5058885;28;20436;-77
2022/05/01 10:43:29;;;;;;;3.63;3.33;;;15.30;99.90;;;;;;5061961;28;20436;-78
2022/05/01 10:45:57;;;;;;;5.50;4.80;;;15.30;99.90;;;;;;5058481;28;20463;-78
2022/05/01 10:48:31;;;;;;;5.50;4.03;;;15.30;99.90;;;;;;5057682;28;20516;-77
2022/05/01 10:51:43;;;;;;;7.13;4.50;;;15.30;99.90;;;;;;5058137;28;20529;-77
2022/05/01 10:54:37;;;;;;;3.37;3.07;;;15.20;99.90;;;;;;5059961;28;21009;-78
2022/05/01 10:57:11;;;;;;;4.33;3.30;;;15.00;99.90;;;;;;5056957;28;20535;-79
2022/05/01 10:59:39;;;;;;;8.00;3.60;;;15.00;99.90;;;;;;5058671;28;20433;-77
2022/05/01 11:02:07;;;;;;;7.83;3.70;;;15.00;99.90;;;;;;5057570;28;20452;-77
2022/05/01 11:04:41;;;;;;;4.63;4.17;;;14.90;99.90;;;;;;5057986;28;20473;-77
2022/05/01 11:07:13;;;;;;;4.00;3.30;;;15.00;99.90;;;;;;5056782;28;20947;-77
2022/05/01 11:09:44;;;;;;;6.87;4.33;;;15.20;99.90;;;;;;5056238;28;20438;-77
2022/05/01 11:12:13;;;;;;;11.93;3.80;;;15.20;99.90;;;;;;5058517;28;20467;-77
2022/05/01 11:14:49;;;;;;;5.63;4.40;;;15.30;99.90;;;;;;5057723;28;21026;-78
2022/05/01 11:17:16;;;;;;;4.60;3.30;;;15.30;99.90;;;;;;5057694;28;20793;-77
2022/05/01 11:19:46;;;;;;;6.83;3.33;;;15.30;99.90;;;;;;5060920;28;20812;-77
2022/05/01 11:22:14;;;;;;;4.87;3.63;;;15.30;99.90;;;;;;5059486;28;20451;-76
2022/05/01 11:24:41;;;;;;;4.37;2.80;;;15.10;99.90;;;;;;5057674;28;20463;-76
2022/05/01 11:27:16;;;;;;;5.17;2.77;;;15.20;99.90;;;;;;5058482;28;20476;-77
2022/05/01 11:30:22;;;;;;;4.03;3.37;;;15.30;99.90;;;;;;5057364;28;20474;-77
2022/05/01 11:32:50;;;;;;;5.93;3.07;;;15.20;99.90;;;;;;5055866;28;20491;-77
2022/05/01 11:35:18;;;;;;;6.93;3.37;;;15.10;99.90;;;;;;5055418;28;20471;-77
2022/05/01 11:38:06;;;;;;;8.47;5.00;;;15.20;99.90;;;;;;5059152;28;20451;-77
2022/05/01 11:40:33;;;;;;;4.50;2.83;;;14.90;99.90;;;;;;5060074;28;20433;-77
2022/05/01 11:43:16;;;;;;;3.88;2.10;;;15.00;99.90;;;;;;5060136;28;20811;-77
2022/05/01 11:45:42;;;;;;;4.13;3.83;;;15.00;99.90;;;;;;5055773;28;20379;-78
2022/05/01 11:48:14;;;;;;;9.27;3.07;;;15.00;99.90;;;;;;5055625;28;20448;-77
2022/05/01 11:50:41;;;;;;;4.40;3.70;;;15.10;99.90;;;;;;5055745;28;20503;-78
2022/05/01 11:53:17;;;;;;;3.93;3.63;;;15.00;99.90;;;;;;5059539;28;20487;-78
2022/05/01 12:04:03;;;;;;;3.97;3.47;;;15.20;99.90;;;;;;5054840;28;20491;-78
2022/05/01 12:06:30;;;;;;;4.57;3.17;;;15.20;99.90;;;;;;5054611;28;20869;-76
2022/05/01 12:08:58;;;;;;;4.50;3.53;;;15.40;1.00;;;;;;5054217;28;20480;-77
2022/05/01 12:11:29;;;;;;;3.07;2.87;;;15.20;99.90;;;;;;5055206;28;20483;-78
2022/05/01 12:14:06;;;;;;;7.47;3.30;;;15.00;99.90;;;;;;5055068;28;20887;-77
2022/05/01 12:16:33;;;;;;;5.73;4.00;;;15.10;99.90;;;;;;5056249;28;20450;-77
2022/05/01 12:19:00;;;;;;;4.67;3.73;;;14.90;99.90;;;;;;5056894;28;20526;-78
2022/05/01 12:21:30;;;;;;;4.63;3.57;;;14.90;99.90;;;;;;5059358;28;20469;-79
2022/05/01 12:24:04;;;;;;;7.43;3.90;;;15.00;99.90;;;;;;5054665;28;20469;-77
2022/05/01 12:26:32;;;;;;;3.87;3.00;;;15.10;99.90;;;;;;5056377;28;20446;-77
2022/05/01 12:29:00;;;;;;;5.00;4.00;;;15.10;99.90;;;;;;5057555;28;20440;-77
2022/05/01 12:31:26;;;;;;;11.40;8.10;;;15.10;99.90;;;;;;5055231;28;20193;-78
2022/05/01 12:33:53;;;;;;;4.43;4.00;;;15.00;99.90;;;;;;5054637;28;20498;-78
2022/05/01 12:36:25;;;;;;;4.47;4.07;;;15.20;99.90;;;;;;5056993;28;20458;-78
2022/05/01 12:39:03;;;;;;;5.50;4.00;;;15.20;99.90;;;;;;5056022;28;20435;-78
2022/05/01 12:44:14;;;;;;;5.37;4.57;;;15.40;99.90;;;;;;5055858;28;20759;-77
2022/05/01 12:46:52;;;;;;;4.00;3.70;;;15.10;1.00;;;;;;5054222;28;20450;-79
2022/05/01 12:49:25;;;;;;;7.10;4.43;;;15.30;99.90;;;;;;5057984;28;20461;-79
2022/05/01 12:51:53;;;;;;;4.33;3.87;;;15.30;99.90;;;;;;5057909;28;20832;-81
2022/05/01 12:54:21;;;;;;;4.03;3.70;;;15.20;99.90;;;;;;5057327;28;20469;-80
2022/05/01 12:56:47;;;;;;;7.00;3.90;;;15.40;99.90;;;;;;5056543;28;20454;-81
2022/05/01 12:59:24;;;;;;;5.83;4.60;;;15.40;99.90;;;;;;5056905;28;20430;-80
2022/05/01 13:01:51;;;;;;;4.90;3.53;;;;;;;;;;5056590;28;20441;-78
2022/05/01 13:04:22;;;;;;;6.37;3.50;;;15.20;99.90;;;;;;5055232;28;20471;-78
2022/05/01 13:06:49;;;;;;;4.77;4.30;;;15.20;99.90;;;;;;5056953;28;20463;-78
2022/05/01 13:09:16;;;;;;;4.17;3.70;;;15.10;99.90;;;;;;5059848;28;20954;-80
2022/05/01 13:14:36;;;;;;;3.97;3.40;;;15.00;99.90;;;;;;5136769;27;20534;-79
2022/05/01 13:17:12;;;;;;;5.00;3.87;;;15.00;99.90;;;;;;5135200;27;20448;-79
2022/05/01 13:19:39;;;;;;;3.70;3.40;;;15.10;99.90;;;;;;5136123;27;20941;-78
2022/05/01 13:22:07;;;;;;;2.90;2.60;;;14.90;99.90;;;;;;5134936;27;20860;-78
2022/05/01 13:27:23;;;;;;;10.77;5.90;;;15.00;99.90;;;;;;5040751;28;20467;-80
2022/05/01 13:33:06;;;;;;;6.77;2.90;;;;;;;;;;5033378;28;20486;-80
2022/05/01 13:35:41;;;;;;;5.13;2.50;;;14.00;99.90;;;;;;5034996;28;20555;-79
2022/05/01 13:38:08;;;;;;;3.40;3.10;;;;;;;;;;5037220;28;20521;-79
2022/05/01 13:46:34;;;;;;;4.20;2.40;;;15.70;1.00;;;;;;5014632;28;20446;-78
2022/05/01 13:49:04;;;;;;;4.18;2.85;;;15.30;99.90;;;;;;5037372;28;20445;-79